Time,TemperatureF,DewpointF,PressureIn,WindDirection,WindDirectionDegrees,WindSpeedMPH,WindSpeedGustMPH,Humidity,HourlyPrecipIn,Conditions,Clouds,dailyrainin,SoftwareType,DateUTC
2013-02-08 00:13:00,21.4,20.2,30.14,NE,45,4.2,-999.0,95,-99.99,,,0.00,Acu-Link.com,2013-02-08 06:13:00,
2013-02-08 00:28:00,21.2,20.0,30.14,NE,45,5.8,-999.0,95,-99.99,,,0.00,Acu-Link.com,2013-02-08 06:28:00,
2013-02-08 00:43:00,21.0,20.0,30.15,East,90,5.3,-999.0,96,-99.99,,,0.00,Acu-Link.com,2013-02-08 06:43:00,
2013-02-08 00:59:00,21.2,20.2,30.15,ENE,67,4.2,-999.0,96,-99.99,,,0.00,Acu-Link.com,2013-02-08 06:59:00,
2013-02-08 01:14:00,21.0,20.0,30.15,East,90,3.2,-999.0,96,-99.99,,,0.00,Acu-Link.com,2013-02-08 07:14:00,
2013-02-08 01:29:00,21.2,20.2,30.15,ESE,112,5.3,-999.0,96,-99.99,,,0.00,Acu-Link.com,2013-02-08 07:29:00,
2013-02-08 01:45:00,21.4,20.4,30.16,SE,135,1.7,-999.0,96,-99.99,,,0.00,Acu-Link.com,2013-02-08 07:45:00,
2013-02-08 02:00:00,21.2,20.2,30.16,ENE,67,1.7,-999.0,96,-99.99,,,0.00,Acu-Link.com,2013-02-08 08:00:00,
2013-02-08 02:15:00,21.4,20.4,30.16,East,90,3.2,-999.0,96,-99.99,,,0.00,Acu-Link.com,2013-02-08 08:15:00,
2013-02-08 02:30:00,21.4,20.4,30.16,ESE,112,3.2,-999.0,96,-99.99,,,0.00,Acu-Link.com,2013-02-08 08:30:00,
2013-02-08 02:45:00,21.2,20.2,30.16,ESE,112,2.7,-999.0,96,-99.99,,,0.00,Acu-Link.com,2013-02-08 08:45:00,
2013-02-08 03:01:00,21.2,20.2,30.16,East,90,3.7,-999.0,96,-99.99,,,0.00,Acu-Link.com,2013-02-08 09:01:00,
2013-02-08 03:16:00,21.0,20.0,30.16,ESE,112,3.2,-999.0,96,-99.99,,,0.00,Acu-Link.com,2013-02-08 09:16:00,
2013-02-08 03:31:00,21.2,20.2,30.16,ESE,112,4.7,-999.0,96,-99.99,,,0.00,Acu-Link.com,2013-02-08 09:31:00,
2013-02-08 03:47:00,20.8,19.8,30.16,ESE,112,5.8,-999.0,96,-99.99,,,0.00,Acu-Link.com,2013-02-08 09:47:00,
2013-02-08 04:02:00,20.7,19.7,30.15,East,90,6.3,-999.0,96,-99.99,,,0.00,Acu-Link.com,2013-02-08 10:02:00,
2013-02-08 04:17:00,20.7,20.0,30.15,East,90,2.7,-999.0,97,-99.99,,,0.00,Acu-Link.com,2013-02-08 10:17:00,
2013-02-08 04:33:00,20.8,20.1,30.15,SE,135,2.7,-999.0,97,-99.99,,,0.00,Acu-Link.com,2013-02-08 10:33:00,
2013-02-08 04:48:00,20.8,20.1,30.16,ESE,112,2.7,-999.0,97,-99.99,,,0.00,Acu-Link.com,2013-02-08 10:48:00,
2013-02-08 05:03:00,20.5,19.8,30.15,SSE,157,2.7,-999.0,97,-99.99,,,0.00,Acu-Link.com,2013-02-08 11:03:00,
2013-02-08 05:18:00,20.5,19.8,30.16,East,90,2.2,-999.0,97,-99.99,,,0.00,Acu-Link.com,2013-02-08 11:18:00,
2013-02-08 05:34:00,20.5,20.0,30.16,ESE,112,5.8,-999.0,98,-99.99,,,0.00,Acu-Link.com,2013-02-08 11:34:00,
2013-02-08 05:49:00,20.1,19.6,30.14,ESE,112,6.3,-999.0,98,-99.99,,,0.00,Acu-Link.com,2013-02-08 11:49:00,
2013-02-08 06:04:00,20.1,19.9,30.15,SSE,157,4.2,-999.0,99,-99.99,,,0.00,Acu-Link.com,2013-02-08 12:04:00,
2013-02-08 06:20:00,20.3,20.1,30.15,SE,135,5.3,-999.0,99,-99.99,,,0.00,Acu-Link.com,2013-02-08 12:20:00,
2013-02-08 06:35:00,20.5,20.3,30.15,ESE,112,4.7,-999.0,99,-99.99,,,0.00,Acu-Link.com,2013-02-08 12:35:00,
2013-02-08 06:50:00,20.5,20.3,30.17,SSE,157,5.8,-999.0,99,-99.99,,,0.00,Acu-Link.com,2013-02-08 12:50:00,
2013-02-08 07:06:00,20.3,20.1,30.16,ESE,112,4.7,-999.0,99,-99.99,,,0.00,Acu-Link.com,2013-02-08 13:06:00,
2013-02-08 07:21:00,20.3,20.1,30.16,SSE,157,7.8,-999.0,99,-99.99,,,0.00,Acu-Link.com,2013-02-08 13:21:00,
2013-02-08 07:36:00,20.5,20.3,30.16,ESE,112,3.7,-999.0,99,-99.99,,,0.00,Acu-Link.com,2013-02-08 13:36:00,
2013-02-08 07:52:00,20.5,20.3,30.16,ESE,112,7.8,-999.0,99,-99.99,,,0.00,Acu-Link.com,2013-02-08 13:52:00,
2013-02-08 08:07:00,20.1,19.9,30.16,SE,135,4.2,-999.0,99,-99.99,,,0.00,Acu-Link.com,2013-02-08 14:07:00,
2013-02-08 08:22:00,20.3,20.1,30.16,SE,135,5.3,-999.0,99,-99.99,,,0.00,Acu-Link.com,2013-02-08 14:22:00,
2013-02-08 08:38:00,20.5,20.3,30.16,SSE,157,7.3,-999.0,99,-99.99,,,0.00,Acu-Link.com,2013-02-08 14:38:00,
2013-02-08 08:53:00,20.5,20.3,30.17,SE,135,5.8,-999.0,99,-99.99,,,0.00,Acu-Link.com,2013-02-08 14:53:00,
2013-02-08 09:08:00,20.3,20.1,30.17,South,180,6.8,-999.0,99,-99.99,,,0.00,Acu-Link.com,2013-02-08 15:08:00,
2013-02-08 09:23:00,20.5,20.3,30.16,South,180,7.8,-999.0,99,-99.99,,,0.00,Acu-Link.com,2013-02-08 15:23:00,
2013-02-08 09:39:00,20.7,20.2,30.16,ESE,112,7.3,-999.0,98,-99.99,,,0.00,Acu-Link.com,2013-02-08 15:39:00,
2013-02-08 09:54:00,21.0,20.5,30.15,SE,135,7.8,-999.0,98,-99.99,,,0.00,Acu-Link.com,2013-02-08 15:54:00,
2013-02-08 10:09:00,21.2,20.7,30.15,SE,135,9.9,-999.0,98,-99.99,,,0.00,Acu-Link.com,2013-02-08 16:09:00,
2013-02-08 10:25:00,21.4,20.9,30.16,ESE,112,7.8,-999.0,98,-99.99,,,0.00,Acu-Link.com,2013-02-08 16:25:00,
2013-02-08 10:40:00,21.4,20.9,30.16,South,180,4.7,-999.0,98,-99.99,,,0.00,Acu-Link.com,2013-02-08 16:40:00,
2013-02-08 10:55:00,21.2,20.5,30.17,ESE,112,7.8,-999.0,97,-99.99,,,0.00,Acu-Link.com,2013-02-08 16:55:00,
2013-02-08 11:10:00,21.7,20.7,30.16,SSE,157,8.9,-999.0,96,-99.99,,,0.00,Acu-Link.com,2013-02-08 17:10:00,
2013-02-08 11:25:00,21.9,20.7,30.16,SSE,157,9.9,-999.0,95,-99.99,,,0.00,Acu-Link.com,2013-02-08 17:25:00,
2013-02-08 11:41:00,22.3,21.1,30.16,SSE,157,9.4,-999.0,95,-99.99,,,0.00,Acu-Link.com,2013-02-08 17:41:00,
2013-02-08 11:56:00,22.6,21.4,30.15,SSE,157,13.5,-999.0,95,-99.99,,,0.00,Acu-Link.com,2013-02-08 17:56:00,
2013-02-08 12:11:00,22.8,21.3,30.14,SE,135,9.4,-999.0,94,-99.99,,,0.00,Acu-Link.com,2013-02-08 18:11:00,
2013-02-08 12:27:00,23.4,21.7,30.13,SSE,157,10.4,-999.0,93,-99.99,,,0.00,Acu-Link.com,2013-02-08 18:27:00,
2013-02-08 12:42:00,24.1,21.6,30.11,SE,135,10.4,-999.0,90,-99.99,,,0.00,Acu-Link.com,2013-02-08 18:42:00,
2013-02-08 12:57:00,24.3,22.1,30.11,SSE,157,11.9,-999.0,91,-99.99,,,0.00,Acu-Link.com,2013-02-08 18:57:00,
2013-02-08 13:12:00,24.6,22.4,30.09,SE,135,5.8,-999.0,91,-99.99,,,0.00,Acu-Link.com,2013-02-08 19:12:00,
2013-02-08 13:28:00,25.2,22.7,30.09,SSE,157,12.5,-999.0,90,-99.99,,,0.00,Acu-Link.com,2013-02-08 19:28:00,
2013-02-08 13:43:00,25.3,22.5,30.08,SSE,157,13.5,-999.0,89,-99.99,,,0.00,Acu-Link.com,2013-02-08 19:43:00,
2013-02-08 13:58:00,25.3,22.8,30.07,SE,135,8.9,-999.0,90,-99.99,,,0.00,Acu-Link.com,2013-02-08 19:58:00,
2013-02-08 14:13:00,25.7,22.9,30.06,ESE,112,11.9,-999.0,89,-99.99,,,0.00,Acu-Link.com,2013-02-08 20:13:00,
2013-02-08 14:28:00,26.1,23.3,30.05,SSE,157,7.3,-999.0,89,-99.99,,,0.00,Acu-Link.com,2013-02-08 20:28:00,
2013-02-08 14:43:00,26.2,23.1,30.04,SSE,157,11.4,-999.0,88,-99.99,,,0.00,Acu-Link.com,2013-02-08 20:43:00,
2013-02-08 14:58:00,27.3,23.7,30.03,SSE,157,10.9,-999.0,86,-99.99,,,0.00,Acu-Link.com,2013-02-08 20:58:00,
2013-02-08 15:13:00,27.3,23.4,30.02,South,180,10.4,-999.0,85,-99.99,,,0.00,Acu-Link.com,2013-02-08 21:13:00,
2013-02-08 15:29:00,28.8,24.3,30.02,SE,135,15.5,-999.0,83,-99.99,,,0.00,Acu-Link.com,2013-02-08 21:29:00,
2013-02-08 15:44:00,29.1,24.3,30.01,SE,135,11.4,-999.0,82,-99.99,,,0.00,Acu-Link.com,2013-02-08 21:44:00,
2013-02-08 15:59:00,30.0,24.6,30.00,ESE,112,9.4,-999.0,80,-99.99,,,0.00,Acu-Link.com,2013-02-08 21:59:00,
2013-02-08 16:15:00,30.6,24.9,29.99,ESE,112,14.5,-999.0,79,-99.99,,,0.00,Acu-Link.com,2013-02-08 22:15:00,
2013-02-08 16:30:00,30.9,24.9,29.99,ESE,112,12.5,-999.0,78,-99.99,,,0.00,Acu-Link.com,2013-02-08 22:30:00,
2013-02-08 16:45:00,30.9,25.2,29.98,SE,135,9.9,-999.0,79,-99.99,,,0.00,Acu-Link.com,2013-02-08 22:45:00,
2013-02-08 17:00:00,30.9,25.2,29.98,SSE,157,13.0,-999.0,79,-99.99,,,0.00,Acu-Link.com,2013-02-08 23:00:00,
2013-02-08 17:16:00,30.9,24.9,29.98,SSE,157,14.5,-999.0,78,-99.99,,,0.00,Acu-Link.com,2013-02-08 23:16:00,
2013-02-08 17:31:00,30.6,24.6,29.97,SE,135,12.5,-999.0,78,-99.99,,,0.00,Acu-Link.com,2013-02-08 23:31:00,
2013-02-08 17:46:00,30.4,24.4,29.97,SSE,157,9.9,-999.0,78,-99.99,,,0.00,Acu-Link.com,2013-02-08 23:46:00,
2013-02-08 18:01:00,30.2,24.2,29.97,SE,135,14.0,-999.0,78,-99.99,,,0.00,Acu-Link.com,2013-02-09 00:01:00,
2013-02-08 18:17:00,30.0,24.0,29.97,SSE,157,7.8,-999.0,78,-99.99,,,0.00,Acu-Link.com,2013-02-09 00:17:00,
2013-02-08 18:32:00,30.0,24.3,29.96,ESE,112,7.8,-999.0,79,-99.99,,,0.00,Acu-Link.com,2013-02-09 00:32:00,
2013-02-08 18:47:00,30.0,24.3,29.96,ESE,112,11.4,-999.0,79,-99.99,,,0.00,Acu-Link.com,2013-02-09 00:47:00,
2013-02-08 19:03:00,29.8,24.1,29.95,SSE,157,12.5,-999.0,79,-99.99,,,0.00,Acu-Link.com,2013-02-09 01:03:00,
2013-02-08 19:18:00,29.8,24.1,29.96,ESE,112,10.9,-999.0,79,-99.99,,,0.00,Acu-Link.com,2013-02-09 01:18:00,
2013-02-08 19:33:00,29.7,24.3,29.95,SSE,157,14.5,-999.0,80,-99.99,,,0.00,Acu-Link.com,2013-02-09 01:33:00,
2013-02-08 19:49:00,29.3,24.2,29.94,SE,135,14.5,-999.0,81,-99.99,,,0.00,Acu-Link.com,2013-02-09 01:49:00,
2013-02-08 20:04:00,28.9,24.1,29.95,ESE,112,9.9,-999.0,82,-99.99,,,0.00,Acu-Link.com,2013-02-09 02:04:00,
2013-02-08 20:19:00,28.6,24.1,29.95,SSE,157,9.4,-999.0,83,-99.99,,,0.00,Acu-Link.com,2013-02-09 02:19:00,
2013-02-08 20:35:00,28.2,24.0,29.95,SE,135,9.4,-999.0,84,-99.99,,,0.00,Acu-Link.com,2013-02-09 02:35:00,
2013-02-08 20:50:00,27.7,23.8,29.95,SE,135,7.3,-999.0,85,-99.99,,,0.00,Acu-Link.com,2013-02-09 02:50:00,
2013-02-08 21:05:00,27.1,23.5,29.95,SE,135,8.3,-999.0,86,-99.99,,,0.00,Acu-Link.com,2013-02-09 03:05:00,
2013-02-08 21:20:00,26.8,23.7,29.96,ESE,112,8.3,-999.0,88,-99.99,,,0.00,Acu-Link.com,2013-02-09 03:20:00,
2013-02-08 21:36:00,27.0,23.9,29.97,SE,135,10.9,-999.0,88,-99.99,,,0.00,Acu-Link.com,2013-02-09 03:36:00,
2013-02-08 21:51:00,26.8,24.0,29.96,ESE,112,11.9,-999.0,89,-99.99,,,0.00,Acu-Link.com,2013-02-09 03:51:00,
2013-02-08 22:07:00,26.4,23.6,29.96,SE,135,13.0,-999.0,89,-99.99,,,0.00,Acu-Link.com,2013-02-09 04:07:00,
2013-02-08 22:22:00,26.2,23.7,29.96,SE,135,14.0,-999.0,90,-99.99,,,0.00,Acu-Link.com,2013-02-09 04:22:00,
2013-02-08 22:37:00,25.9,23.9,29.96,SE,135,11.9,-999.0,92,-99.99,,,0.00,Acu-Link.com,2013-02-09 04:37:00,
2013-02-08 22:52:00,26.2,24.2,29.95,ESE,112,13.0,-999.0,92,-99.99,,,0.00,Acu-Link.com,2013-02-09 04:52:00,
2013-02-08 23:08:00,26.2,24.2,29.94,SE,135,11.9,-999.0,92,-99.99,,,0.00,Acu-Link.com,2013-02-09 05:08:00,
2013-02-08 23:23:00,26.2,24.2,29.93,SSE,157,13.5,-999.0,92,-99.99,,,0.00,Acu-Link.com,2013-02-09 05:23:00,
2013-02-08 23:38:00,26.1,24.1,29.93,SE,135,13.0,-999.0,92,-99.99,,,0.00,Acu-Link.com,2013-02-09 05:38:00,
2013-02-08 23:53:00,25.9,24.2,29.93,SSE,157,9.9,-999.0,93,-99.99,,,0.00,Acu-Link.com,2013-02-09 05:53:00,